< < Back
Terminal Aerodrome Forecast


Current Version              Previous Versions:   1  2  3  4  5  6  7  8  9  

Terminal Aerodrome Forecast

672
FTUS42 KFFC 301120
TAFCSG
TAF
KCSG 301120Z 3012/3112 30013G23KT P6SM SKC
     FM301600 32012G20KT P6SM SKC
     FM310000 32004KT P6SM SKC=

Latest METAR

254
SAUS70 KWBC 301200 RRA
MTRCSG
METAR KCSG 301151Z AUTO 35007KT 10SM CLR 06/M02 A3026 RMK AO2 SLP246
T00561017 10139 20056 52032


USA.gov is the U.S. government's official web portal to all federal, state and local government web resources and services.